createdAt,value
2022-10-21T00:00:59.642Z,88.32
2022-10-21T00:03:29.439Z,87.45
2022-10-21T00:05:56.944Z,83.85
2022-10-21T00:08:24.719Z,80.00
2022-10-21T00:10:55.682Z,91.18
2022-10-21T00:13:23.137Z,90.13
2022-10-21T00:16:00.678Z,91.07
2022-10-21T00:18:28.499Z,85.82
2022-10-21T00:20:55.743Z,89.30
2022-10-21T00:23:22.977Z,91.28
2022-10-21T00:25:50.229Z,92.85
2022-10-21T00:28:17.420Z,85.40
2022-10-21T00:30:45.172Z,91.20
2022-10-21T00:33:13.243Z,84.50
2022-10-21T00:35:40.543Z,93.97
2022-10-21T00:38:07.956Z,85.30
2022-10-21T00:40:35.289Z,82.60
2022-10-21T00:43:02.527Z,90.65
2022-10-21T00:45:30.505Z,91.47
2022-10-21T00:48:09.767Z,89.03
2022-10-21T00:50:42.701Z,84.72
2022-10-21T00:53:11.672Z,91.43
2022-10-21T00:55:40.969Z,95.50
2022-10-21T00:58:08.775Z,88.28
2022-10-21T01:00:36.058Z,80.90
2022-10-21T01:03:15.577Z,83.78
2022-10-21T01:05:43.067Z,86.65
2022-10-21T01:08:10.284Z,93.45
2022-10-21T01:10:38.544Z,84.15
2022-10-21T01:13:14.728Z,87.30
2022-10-21T01:15:46.056Z,91.25
2022-10-21T01:18:13.280Z,83.35
2022-10-21T01:20:58.636Z,87.95
2022-10-21T01:23:28.760Z,85.00
2022-10-21T01:25:58.845Z,84.68
2022-10-21T01:28:37.896Z,86.93
2022-10-21T01:31:16.631Z,80.47
2022-10-21T01:33:48.080Z,83.07
2022-10-21T01:36:24.332Z,88.85
2022-10-21T01:39:03.629Z,82.45
2022-10-21T01:41:33.731Z,87.10
2022-10-21T01:44:06.792Z,78.25
2022-10-21T01:46:49.779Z,86.43
2022-10-21T01:49:20.808Z,86.05
2022-10-21T01:51:48.609Z,83.75
2022-10-21T01:54:19.859Z,89.70
2022-10-21T01:56:47.484Z,85.75
2022-10-21T01:59:15.114Z,84.88
2022-10-21T02:01:43.999Z,86.95
2022-10-21T02:04:12.141Z,84.80
2022-10-21T02:06:39.413Z,81.90
2022-10-21T02:09:06.746Z,81.53
2022-10-21T02:11:36.064Z,73.13
2022-10-21T02:14:04.997Z,79.45
2022-10-21T02:16:33.542Z,87.55
2022-10-21T02:19:01.487Z,80.13
2022-10-21T02:21:30.898Z,83.18
2022-10-21T02:23:58.267Z,85.18
2022-10-21T02:26:26.871Z,77.88
2022-10-21T02:28:55.430Z,77.20
2022-10-21T02:31:22.611Z,81.43
2022-10-21T02:33:53.031Z,78.18
2022-10-21T02:36:38.691Z,83.13
2022-10-21T02:39:13.477Z,82.82
2022-10-21T02:41:41.427Z,81.60
2022-10-21T02:44:09.301Z,78.90
2022-10-21T02:46:41.539Z,77.75
2022-10-21T02:49:08.809Z,80.95
2022-10-21T02:51:36.237Z,81.95
2022-10-21T02:54:03.749Z,82.35
2022-10-21T02:56:31.055Z,77.20
2022-10-21T02:58:58.327Z,83.25
2022-10-21T03:01:25.571Z,75.35
2022-10-21T03:03:52.836Z,82.85
2022-10-21T03:06:20.636Z,82.43
2022-10-21T03:08:47.933Z,71.28
2022-10-21T03:11:15.192Z,72.18
2022-10-21T03:13:42.431Z,79.40
2022-10-21T03:16:09.773Z,76.30
2022-10-21T03:18:37.092Z,82.05
2022-10-21T03:21:04.395Z,85.43
2022-10-21T03:23:31.612Z,76.18
2022-10-21T03:25:59.008Z,77.47
2022-10-21T03:28:26.309Z,72.10
2022-10-21T03:30:54.957Z,71.90
2022-10-21T03:33:22.198Z,70.57
2022-10-21T03:35:49.446Z,80.50
2022-10-21T03:38:16.684Z,70.95
2022-10-21T03:40:43.900Z,69.57
2022-10-21T03:43:11.103Z,71.03
2022-10-21T03:45:38.336Z,67.20
2022-10-21T03:48:05.616Z,73.30
2022-10-21T03:50:32.863Z,74.20
2022-10-21T03:53:02.381Z,67.25
2022-10-21T03:55:33.874Z,70.80
2022-10-21T03:58:01.212Z,65.00
2022-10-21T04:00:31.614Z,64.10
2022-10-21T04:02:59.088Z,66.78
2022-10-21T04:05:26.274Z,67.40
2022-10-21T04:07:53.468Z,68.72
2022-10-21T04:10:21.040Z,71.80
2022-10-21T04:12:48.298Z,67.70
2022-10-21T04:15:15.796Z,63.08
2022-10-21T04:17:43.080Z,67.22
2022-10-21T04:20:11.295Z,71.30
2022-10-21T04:22:38.827Z,71.68
2022-10-21T04:25:06.721Z,72.15
2022-10-21T04:27:33.985Z,64.68
2022-10-21T04:30:01.227Z,68.68
2022-10-21T04:32:28.410Z,64.45
2022-10-21T04:34:55.670Z,63.67
2022-10-21T04:37:22.899Z,68.53
2022-10-21T04:39:50.161Z,67.63
2022-10-21T04:42:17.420Z,70.43
2022-10-21T04:44:44.715Z,72.63
2022-10-21T04:47:11.942Z,68.78
2022-10-21T04:49:39.146Z,71.55
2022-10-21T04:52:06.376Z,67.90
2022-10-21T04:54:33.620Z,74.97
2022-10-21T04:57:00.851Z,76.63
2022-10-21T04:59:28.159Z,63.95
2022-10-21T05:01:55.395Z,72.93
2022-10-21T05:04:22.673Z,77.65
2022-10-21T05:06:49.910Z,76.85
2022-10-21T05:09:17.334Z,77.45
2022-10-21T05:11:44.603Z,70.07
2022-10-21T05:14:11.819Z,75.95
2022-10-21T05:16:39.055Z,78.07
2022-10-21T05:19:06.421Z,78.38
2022-10-21T05:21:33.770Z,79.10
2022-10-21T05:24:01.112Z,74.20
2022-10-21T05:26:29.139Z,70.45
2022-10-21T05:28:56.373Z,65.78
2022-10-21T05:31:23.609Z,75.00
2022-10-21T05:33:50.807Z,77.25
2022-10-21T05:36:20.524Z,74.82
2022-10-21T05:38:50.509Z,73.07
2022-10-21T05:41:17.752Z,73.55
2022-10-21T05:43:45.044Z,79.45
2022-10-21T05:46:12.475Z,82.43
2022-10-21T05:48:39.732Z,75.32
2022-10-21T05:51:08.518Z,78.20
2022-10-21T05:53:36.083Z,77.28
2022-10-21T05:56:04.843Z,89.45
2022-10-21T05:58:32.626Z,77.57
2022-10-21T06:01:00.023Z,80.25
2022-10-21T06:03:32.367Z,83.30
2022-10-21T06:06:03.655Z,82.47
2022-10-21T06:08:32.028Z,75.90
2022-10-21T06:11:07.289Z,81.47
2022-10-21T06:13:34.930Z,77.65
2022-10-21T06:16:02.655Z,73.25
2022-10-21T06:18:30.084Z,80.68
2022-10-21T06:20:57.295Z,81.03
2022-10-21T06:23:24.598Z,85.68
2022-10-21T06:26:02.196Z,82.88
2022-10-21T06:28:30.176Z,84.85
2022-10-21T06:30:57.614Z,80.45
2022-10-21T06:33:27.156Z,75.10
2022-10-21T06:35:55.181Z,90.25
2022-10-21T06:38:22.560Z,87.35
2022-10-21T06:40:49.800Z,82.53
2022-10-21T06:43:17.338Z,84.93
2022-10-21T06:45:44.678Z,85.47
2022-10-21T06:48:13.610Z,86.57
2022-10-21T06:50:41.103Z,86.43
2022-10-21T06:53:08.411Z,81.50
2022-10-21T06:55:35.976Z,82.45
2022-10-21T06:58:03.269Z,81.85
2022-10-21T07:03:02.639Z,79.75
2022-10-21T07:05:29.829Z,81.93
2022-10-21T07:07:57.634Z,84.75
2022-10-21T07:10:24.974Z,82.43
2022-10-21T07:12:52.211Z,90.00
2022-10-21T07:15:19.468Z,82.72
2022-10-21T07:17:46.757Z,81.70
2022-10-21T07:20:14.049Z,74.75
2022-10-21T07:22:41.268Z,78.22
2022-10-21T07:25:08.659Z,75.25
2022-10-21T07:27:36.089Z,83.88
2022-10-21T07:30:03.567Z,79.00
2022-10-21T07:32:30.907Z,81.88
2022-10-21T07:34:58.156Z,76.00
2022-10-21T07:37:25.363Z,83.63
2022-10-21T07:39:52.581Z,75.72
2022-10-21T07:42:20.126Z,70.55
2022-10-21T07:44:47.368Z,70.88
2022-10-21T07:47:14.567Z,74.45
2022-10-21T07:49:41.824Z,66.57
2022-10-21T07:52:09.095Z,69.35
2022-10-21T07:54:36.435Z,68.72
2022-10-21T07:57:03.702Z,72.57
2022-10-21T07:59:30.944Z,73.13
2022-10-21T08:01:58.135Z,76.55
2022-10-21T08:04:29.782Z,61.97
2022-10-21T08:09:24.477Z,61.95
2022-10-21T08:11:51.712Z,59.67
2022-10-21T08:14:19.082Z,51.85
2022-10-21T08:16:46.433Z,51.35
2022-10-21T08:19:21.216Z,44.08
2022-10-21T08:21:48.576Z,39.53
2022-10-21T08:24:16.045Z,33.10
2022-10-21T08:26:43.274Z,34.22
2022-10-21T08:29:10.535Z,41.83
2022-10-21T08:31:37.914Z,36.40
2022-10-21T08:34:05.156Z,37.83
2022-10-21T08:36:32.414Z,33.83
2022-10-21T08:38:59.783Z,30.83
2022-10-21T08:41:29.731Z,32.83
2022-10-21T08:44:18.209Z,29.38
2022-10-21T08:46:52.706Z,25.02
2022-10-21T08:49:30.847Z,22.50
2022-10-21T08:52:01.450Z,26.67
2022-10-21T08:54:49.614Z,20.98
2022-10-21T08:57:17.181Z,27.30
2022-10-21T08:59:44.414Z,22.25
2022-10-21T09:02:14.420Z,22.42
2022-10-21T09:04:56.716Z,24.30
2022-10-21T09:07:32.773Z,20.77
2022-10-21T09:09:59.931Z,30.70
2022-10-21T09:12:33.624Z,21.10
2022-10-21T09:15:08.634Z,21.80
2022-10-21T09:18:16.844Z,19.70
2022-10-21T09:20:46.710Z,22.63
2022-10-21T09:23:16.860Z,21.33
2022-10-21T09:25:56.753Z,18.95
2022-10-21T09:28:25.539Z,21.33
2022-10-21T09:30:53.473Z,22.90
2022-10-21T09:33:24.099Z,22.02
2022-10-21T09:35:58.882Z,21.93
2022-10-21T09:38:29.118Z,17.42
2022-10-21T09:41:03.097Z,27.55
2022-10-21T09:43:31.368Z,26.10
2022-10-21T09:45:59.000Z,25.27
2022-10-21T09:48:26.295Z,20.08
2022-10-21T09:50:55.236Z,29.85
2022-10-21T09:53:28.036Z,21.38
2022-10-21T09:56:01.900Z,25.85
2022-10-21T09:58:37.971Z,26.23
2022-10-21T10:01:08.028Z,27.55
2022-10-21T10:03:35.244Z,19.55
2022-10-21T10:06:03.085Z,22.00
2022-10-21T10:08:32.402Z,25.90
2022-10-21T10:11:13.026Z,24.90
2022-10-21T10:13:47.488Z,23.10
2022-10-21T10:16:14.901Z,23.08
2022-10-21T10:18:42.863Z,22.05
2022-10-21T10:21:14.068Z,22.25
2022-10-21T10:23:46.267Z,25.42
2022-10-21T10:26:32.445Z,22.95
2022-10-21T10:29:03.652Z,25.98
2022-10-21T10:31:34.922Z,21.58
2022-10-21T10:34:04.992Z,20.75
2022-10-21T10:36:35.102Z,23.42
2022-10-21T10:39:03.047Z,24.27
2022-10-21T10:41:32.278Z,27.33
2022-10-21T10:43:59.526Z,27.98
2022-10-21T10:46:29.666Z,21.58
2022-10-21T10:48:58.992Z,21.38
2022-10-21T10:51:28.689Z,25.65
2022-10-21T10:54:01.983Z,21.60
2022-10-21T10:56:49.608Z,19.13
2022-10-21T10:59:35.752Z,20.15
2022-10-21T11:02:12.255Z,25.00
2022-10-21T11:04:39.463Z,23.45
2022-10-21T11:07:12.556Z,22.75
2022-10-21T11:09:39.885Z,22.20
2022-10-21T11:12:12.479Z,23.13
2022-10-21T11:14:39.701Z,20.80
2022-10-21T11:17:06.959Z,21.60
2022-10-21T11:19:46.446Z,25.70
2022-10-21T11:22:36.755Z,25.50
2022-10-21T11:25:05.210Z,24.80
2022-10-21T11:27:35.192Z,22.10
2022-10-21T11:30:10.788Z,19.35
2022-10-21T11:32:58.545Z,23.73
2022-10-21T11:35:28.718Z,15.77
2022-10-21T11:37:55.942Z,22.27
2022-10-21T11:40:23.196Z,26.95
2022-10-21T11:42:53.715Z,22.40
2022-10-21T11:45:39.107Z,22.83
2022-10-21T11:48:16.290Z,20.13
2022-10-21T11:50:43.469Z,17.60
2022-10-21T11:53:14.345Z,30.45
2022-10-21T11:55:44.287Z,19.60
2022-10-21T11:58:11.465Z,17.73
2022-10-21T12:00:46.327Z,24.45
2022-10-21T12:03:28.592Z,18.75
2022-10-21T12:06:01.164Z,25.17
2022-10-21T12:08:31.572Z,15.63
2022-10-21T12:11:02.660Z,21.23
2022-10-21T12:13:38.853Z,22.55
2022-10-21T12:16:08.335Z,18.35
2022-10-21T12:18:38.302Z,21.70
2022-10-21T12:21:07.323Z,15.82
2022-10-21T12:23:34.707Z,17.60
2022-10-21T12:26:05.149Z,19.02
2022-10-21T12:28:32.627Z,22.20
2022-10-21T12:31:04.106Z,15.98
2022-10-21T12:33:48.579Z,23.83
2022-10-21T12:36:20.893Z,19.13
2022-10-21T12:38:48.501Z,18.55
2022-10-21T12:41:24.657Z,16.77
2022-10-21T12:44:03.903Z,22.38
2022-10-21T12:46:41.981Z,20.50
2022-10-21T12:49:24.209Z,20.10
2022-10-21T12:52:18.300Z,15.23
2022-10-21T12:54:59.280Z,19.85
2022-10-21T12:57:32.366Z,16.10
2022-10-21T13:00:17.765Z,18.85
2022-10-21T13:03:03.946Z,20.77
2022-10-21T13:05:51.391Z,20.45
2022-10-21T13:08:24.279Z,14.32
2022-10-21T13:11:06.526Z,21.70
2022-10-21T13:13:37.929Z,20.05
2022-10-21T13:16:20.065Z,23.10
2022-10-21T13:18:53.265Z,21.85
2022-10-21T13:21:23.193Z,23.90
2022-10-21T13:23:52.102Z,33.80
2022-10-21T13:26:20.840Z,21.40
2022-10-21T13:29:12.659Z,20.75
2022-10-21T13:31:43.428Z,15.57
2022-10-21T13:34:29.414Z,20.65
2022-10-21T13:36:57.359Z,18.77
2022-10-21T13:39:28.341Z,20.45
2022-10-21T13:41:57.603Z,22.98
2022-10-21T13:44:28.178Z,19.75
2022-10-21T13:46:55.451Z,19.92
2022-10-21T13:49:27.371Z,17.58
2022-10-21T13:51:54.640Z,16.48
2022-10-21T13:54:21.896Z,24.80
2022-10-21T13:56:49.189Z,18.30
2022-10-21T13:59:24.071Z,17.25
2022-10-21T14:01:55.495Z,25.48
2022-10-21T14:04:23.956Z,15.40
2022-10-21T14:06:57.689Z,22.30
2022-10-21T14:09:28.200Z,19.08
2022-10-21T14:12:03.522Z,16.45
2022-10-21T14:14:31.390Z,21.15
2022-10-21T14:17:10.035Z,73.63
2022-10-21T14:19:38.890Z,132.45
2022-10-21T14:22:09.883Z,22.77
2022-10-21T14:24:41.718Z,15.75
2022-10-21T14:27:12.715Z,20.20
2022-10-21T14:29:41.390Z,22.65
2022-10-21T14:32:08.720Z,26.35
2022-10-21T14:34:36.706Z,19.70
2022-10-21T14:37:09.568Z,19.10
2022-10-21T14:39:39.615Z,24.38
2022-10-21T14:42:17.496Z,21.80
2022-10-21T14:44:45.469Z,28.13
2022-10-21T14:47:19.625Z,24.35
2022-10-21T14:49:48.379Z,19.50
2022-10-21T14:52:18.950Z,20.63
2022-10-21T14:54:48.170Z,30.98
2022-10-21T14:57:29.194Z,32.35
2022-10-21T14:59:56.703Z,61.97
2022-10-21T15:02:28.934Z,23.23
2022-10-21T15:04:57.353Z,26.85
2022-10-21T15:07:24.537Z,31.55
2022-10-21T15:10:00.863Z,25.75
2022-10-21T15:12:32.414Z,22.08
2022-10-21T15:17:26.732Z,21.83
2022-10-21T15:19:54.032Z,26.10
2022-10-21T15:22:25.782Z,27.65
2022-10-21T15:24:54.095Z,23.95
2022-10-21T15:27:32.819Z,31.08
2022-10-21T15:30:11.343Z,26.67
2022-10-21T15:32:38.575Z,28.80
2022-10-21T15:35:21.648Z,27.40
2022-10-21T15:37:49.751Z,25.52
2022-10-21T15:40:18.128Z,33.10
2022-10-21T15:42:45.990Z,27.70
2022-10-21T15:45:17.495Z,27.88
2022-10-21T15:47:44.817Z,27.17
2022-10-21T15:50:15.757Z,32.80
2022-10-21T15:52:43.012Z,39.40
2022-10-21T15:55:10.640Z,57.08
2022-10-21T15:57:38.928Z,33.35
2022-10-21T16:00:17.915Z,31.05
2022-10-21T16:02:45.523Z,27.13
2022-10-21T16:05:12.775Z,28.25
2022-10-21T16:07:40.482Z,29.27
2022-10-21T16:10:17.243Z,29.30
2022-10-21T16:12:44.940Z,27.55
2022-10-21T16:15:12.321Z,29.67
2022-10-21T16:17:40.693Z,29.08
2022-10-21T16:20:08.281Z,35.10
2022-10-21T16:22:35.601Z,26.70
2022-10-21T16:25:02.878Z,29.52
2022-10-21T16:27:43.945Z,28.90
2022-10-21T16:30:17.373Z,27.42
2022-10-21T16:32:44.708Z,24.02
2022-10-21T16:35:13.339Z,38.80
2022-10-21T16:37:41.111Z,28.08
2022-10-21T16:40:14.720Z,32.13
2022-10-21T16:42:42.267Z,50.20
2022-10-21T16:45:09.761Z,90.68
2022-10-21T16:47:37.798Z,36.58
2022-10-21T16:50:05.741Z,30.98
2022-10-21T16:52:34.902Z,30.30
2022-10-21T16:55:02.111Z,28.35
2022-10-21T16:57:29.349Z,29.40
2022-10-21T16:59:56.583Z,28.88
2022-10-21T17:02:23.780Z,22.80
2022-10-21T17:04:51.023Z,27.35
2022-10-21T17:07:18.321Z,32.53
2022-10-21T17:09:45.563Z,27.58
2022-10-21T17:12:12.782Z,26.15
2022-10-21T17:14:40.006Z,30.88
2022-10-21T17:17:07.379Z,28.05
2022-10-21T17:19:34.634Z,28.48
2022-10-21T17:22:01.859Z,26.13
2022-10-21T17:24:29.223Z,31.92
2022-10-21T17:26:57.487Z,24.77
2022-10-21T17:29:24.860Z,25.23
2022-10-21T17:31:52.116Z,25.77
2022-10-21T17:34:26.918Z,27.80
2022-10-21T17:36:54.211Z,22.58
2022-10-21T17:39:21.459Z,23.67
2022-10-21T17:41:48.759Z,32.67
2022-10-21T17:44:16.023Z,26.58
2022-10-21T17:46:43.284Z,22.95
2022-10-21T17:49:10.705Z,62.70
2022-10-21T17:51:37.907Z,38.83
2022-10-21T17:54:05.251Z,26.17
2022-10-21T17:56:32.496Z,31.17
2022-10-21T17:59:01.280Z,27.58
2022-10-21T18:01:28.817Z,21.38
2022-10-21T18:03:58.550Z,26.17
2022-10-21T18:06:25.820Z,26.73
2022-10-21T18:08:53.127Z,32.40
2022-10-21T18:11:21.386Z,26.88
2022-10-21T18:13:53.464Z,24.65
2022-10-21T18:16:22.822Z,32.15
2022-10-21T18:18:50.173Z,28.42
2022-10-21T18:21:19.591Z,24.90
2022-10-21T18:23:47.681Z,21.70
2022-10-21T18:26:16.347Z,25.08
2022-10-21T18:28:43.568Z,19.85
2022-10-21T18:31:12.818Z,20.60
2022-10-21T18:33:40.052Z,21.55
2022-10-21T18:36:08.471Z,31.08
2022-10-21T18:38:35.748Z,41.58
2022-10-21T18:41:19.438Z,30.10
2022-10-21T18:43:48.495Z,21.40
2022-10-21T18:46:15.720Z,20.40
2022-10-21T18:48:42.974Z,20.00
2022-10-21T18:51:11.256Z,22.67
2022-10-21T18:53:40.781Z,22.35
2022-10-21T18:56:08.892Z,18.45
2022-10-21T18:58:37.547Z,18.58
2022-10-21T19:01:05.154Z,24.42
2022-10-21T19:03:32.804Z,20.40
2022-10-21T19:06:16.309Z,18.83
2022-10-21T19:08:43.818Z,21.77
2022-10-21T19:11:11.142Z,19.98
2022-10-21T19:13:38.430Z,21.30
2022-10-21T19:16:05.804Z,51.72
2022-10-21T19:18:33.127Z,56.60
2022-10-21T19:21:00.368Z,26.42
2022-10-21T19:23:27.949Z,25.60
2022-10-21T19:25:55.191Z,20.77
2022-10-21T19:28:22.409Z,41.63
2022-10-21T19:30:49.608Z,49.88
2022-10-21T19:33:16.931Z,34.88
2022-10-21T19:35:44.140Z,21.05
2022-10-21T19:38:20.469Z,18.75
2022-10-21T19:40:53.669Z,22.70
2022-10-21T19:43:20.867Z,21.90
2022-10-21T19:45:48.310Z,21.10
2022-10-21T19:48:16.441Z,21.05
2022-10-21T19:50:47.008Z,26.83
2022-10-21T19:53:14.203Z,20.38
2022-10-21T19:55:41.675Z,25.55
2022-10-21T19:58:08.965Z,22.60
2022-10-21T20:00:36.649Z,21.60
2022-10-21T20:03:04.743Z,28.08
2022-10-21T20:05:34.438Z,23.58
2022-10-21T20:08:01.683Z,23.05
2022-10-21T20:10:28.996Z,26.42
2022-10-21T20:12:56.615Z,23.30
2022-10-21T20:15:23.918Z,26.60
2022-10-21T20:17:51.408Z,28.63
2022-10-21T20:20:18.661Z,26.75
2022-10-21T20:22:45.965Z,29.65
2022-10-21T20:25:13.440Z,27.33
2022-10-21T20:27:40.991Z,29.48
2022-10-21T20:30:08.846Z,33.53
2022-10-21T20:32:36.114Z,32.13
2022-10-21T20:35:03.401Z,29.90
2022-10-21T20:37:30.593Z,38.55
2022-10-21T20:39:57.824Z,33.90
2022-10-21T20:42:25.064Z,34.83
2022-10-21T20:44:52.302Z,36.10
2022-10-21T20:47:19.518Z,36.90
2022-10-21T20:49:46.760Z,32.40
2022-10-21T20:52:14.038Z,48.67
2022-10-21T20:54:41.331Z,37.05
2022-10-21T20:57:08.588Z,38.35
2022-10-21T20:59:36.134Z,38.53
2022-10-21T21:02:03.376Z,80.40
2022-10-21T21:04:30.583Z,93.57
2022-10-21T21:06:57.818Z,53.38
2022-10-21T21:12:13.066Z,47.88
2022-10-21T21:14:40.467Z,37.15
2022-10-21T21:17:07.834Z,43.92
2022-10-21T21:19:35.454Z,38.97
2022-10-21T21:22:03.811Z,42.70
2022-10-21T21:24:31.235Z,40.05
2022-10-21T21:26:58.473Z,41.25
2022-10-21T21:29:25.711Z,43.25
2022-10-21T21:31:52.995Z,38.33
2022-10-21T21:34:20.203Z,43.90
2022-10-21T21:36:47.476Z,45.95
2022-10-21T21:41:46.901Z,44.17
2022-10-21T21:44:14.335Z,46.65
2022-10-21T21:46:41.604Z,51.83
2022-10-21T21:49:08.823Z,49.13
2022-10-21T21:51:36.715Z,49.08
2022-10-21T21:54:04.681Z,52.55
2022-10-21T21:56:31.918Z,54.15
2022-10-21T21:58:59.309Z,50.83
2022-10-21T22:01:28.088Z,52.83
2022-10-21T22:03:55.749Z,54.15
2022-10-21T22:08:57.148Z,55.67
2022-10-21T22:11:25.543Z,55.08
2022-10-21T22:13:52.986Z,51.78
2022-10-21T22:16:22.201Z,56.30
2022-10-21T22:18:49.661Z,55.40
2022-10-21T22:21:18.288Z,62.33
2022-10-21T22:23:45.732Z,82.40
2022-10-21T22:26:14.278Z,56.85
2022-10-21T22:28:41.960Z,56.72
2022-10-21T22:31:13.617Z,52.17
2022-10-21T22:36:08.194Z,49.05
2022-10-21T22:38:35.609Z,47.50
2022-10-21T22:41:05.217Z,54.58
2022-10-21T22:46:09.614Z,51.13
2022-10-21T22:48:48.564Z,51.22
2022-10-21T22:51:15.807Z,46.15
2022-10-21T22:53:43.035Z,46.42
2022-10-21T22:56:10.268Z,51.55
2022-10-21T22:58:37.457Z,46.65
2022-10-21T23:01:08.652Z,44.47
2022-10-21T23:03:36.700Z,44.95
2022-10-21T23:06:03.929Z,52.67
2022-10-21T23:08:31.328Z,50.83
2022-10-21T23:10:58.999Z,55.67
2022-10-21T23:13:26.273Z,50.45
2022-10-21T23:15:53.527Z,49.10
2022-10-21T23:18:20.808Z,47.17
2022-10-21T23:20:48.036Z,45.65
2022-10-21T23:23:15.223Z,46.70
2022-10-21T23:25:42.525Z,45.30
2022-10-21T23:28:10.240Z,53.75
2022-10-21T23:30:38.386Z,54.22
2022-10-21T23:33:05.640Z,55.47
2022-10-21T23:35:33.036Z,54.55
2022-10-21T23:38:00.443Z,54.90
2022-10-21T23:40:27.956Z,55.28
2022-10-21T23:42:55.338Z,57.25
2022-10-21T23:45:22.634Z,57.72
2022-10-21T23:47:49.881Z,55.25
2022-10-21T23:50:17.252Z,51.33
2022-10-21T23:52:44.519Z,50.13
2022-10-21T23:55:11.820Z,51.60
2022-10-21T23:57:39.392Z,55.85
